sensor_id;sensor_type;location;lat;lon;timestamp;pressure;altitude;pressure_sealevel;temperature;humidity
13594;BME280;6449;47.666;9.160;2022-08-05T00:04:44;96682.44;;;24.93;66.83
13594;BME280;6449;47.666;9.160;2022-08-05T00:09:48;96674.88;;;24.76;67.74
13594;BME280;6449;47.666;9.160;2022-08-05T00:14:41;96674.69;;;24.78;67.69
13594;BME280;6449;47.666;9.160;2022-08-05T00:19:36;96672.19;;;24.83;66.96
13594;BME280;6449;47.666;9.160;2022-08-05T00:24:50;96683.38;;;24.60;68.52
13594;BME280;6449;47.666;9.160;2022-08-05T00:29:46;96697.81;;;24.33;70.76
13594;BME280;6449;47.666;9.160;2022-08-05T00:34:41;96708.56;;;24.26;72.10
13594;BME280;6449;47.666;9.160;2022-08-05T00:39:56;96702.19;;;24.20;72.33
13594;BME280;6449;47.666;9.160;2022-08-05T00:44:50;96706.28;;;24.23;73.49
13594;BME280;6449;47.666;9.160;2022-08-05T00:49:45;96705.84;;;24.59;73.17
13594;BME280;6449;47.666;9.160;2022-08-05T00:54:42;96702.75;;;24.69;73.23
13594;BME280;6449;47.666;9.160;2022-08-05T00:59:37;96710.38;;;24.65;73.47
13594;BME280;6449;47.666;9.160;2022-08-05T01:04:36;96716.97;;;24.69;73.71
13594;BME280;6449;47.666;9.160;2022-08-05T01:09:33;96725.25;;;24.68;73.87
13594;BME280;6449;47.666;9.160;2022-08-05T01:14:35;96721.53;;;24.62;73.51
13594;BME280;6449;47.666;9.160;2022-08-05T01:19:41;96729.78;;;24.54;73.56
13594;BME280;6449;47.666;9.160;2022-08-05T01:25:40;96722.59;;;24.48;74.38
13594;BME280;6449;47.666;9.160;2022-08-05T01:30:52;96713.47;;;24.69;73.33
13594;BME280;6449;47.666;9.160;2022-08-05T01:35:49;96730.59;;;24.54;74.67
13594;BME280;6449;47.666;9.160;2022-08-05T01:40:46;96741.75;;;24.58;75.05
13594;BME280;6449;47.666;9.160;2022-08-05T01:45:40;96744.03;;;24.41;76.17
13594;BME280;6449;47.666;9.160;2022-08-05T01:50:50;96755.56;;;24.48;76.83
13594;BME280;6449;47.666;9.160;2022-08-05T01:55:45;96781.53;;;24.54;78.22
13594;BME280;6449;47.666;9.160;2022-08-05T02:00:43;96808.56;;;24.53;79.20
13594;BME280;6449;47.666;9.160;2022-08-05T02:05:39;96803.81;;;24.75;78.10
13594;BME280;6449;47.666;9.160;2022-08-05T02:10:42;96810.59;;;24.84;76.19
13594;BME280;6449;47.666;9.160;2022-08-05T02:15:48;96808.94;;;24.76;75.24
13594;BME280;6449;47.666;9.160;2022-08-05T02:20:48;96814.13;;;24.78;75.34
13594;BME280;6449;47.666;9.160;2022-08-05T02:25:45;96802.34;;;24.79;74.41
13594;BME280;6449;47.666;9.160;2022-08-05T02:30:49;96797.63;;;24.68;75.19
13594;BME280;6449;47.666;9.160;2022-08-05T02:35:49;96810.19;;;24.80;72.62
13594;BME280;6449;47.666;9.160;2022-08-05T02:40:53;96810.56;;;24.97;70.53
13594;BME280;6449;47.666;9.160;2022-08-05T02:45:49;96798.41;;;25.08;70.31
13594;BME280;6449;47.666;9.160;2022-08-05T02:50:45;96791.75;;;25.24;68.18
13594;BME280;6449;47.666;9.160;2022-08-05T02:55:41;96779.34;;;25.36;65.45
13594;BME280;6449;47.666;9.160;2022-08-05T03:00:54;96770.50;;;25.67;64.49
13594;BME280;6449;47.666;9.160;2022-08-05T03:05:49;96771.38;;;25.61;64.86
13594;BME280;6449;47.666;9.160;2022-08-05T03:11:03;96779.06;;;25.57;63.71
13594;BME280;6449;47.666;9.160;2022-08-05T03:16:29;96767.63;;;25.69;63.42
13594;BME280;6449;47.666;9.160;2022-08-05T03:21:23;96761.44;;;25.61;62.38
13594;BME280;6449;47.666;9.160;2022-08-05T03:26:20;96766.63;;;25.56;61.93
13594;BME280;6449;47.666;9.160;2022-08-05T03:31:24;96787.81;;;25.33;63.47
13594;BME280;6449;47.666;9.160;2022-08-05T03:36:39;96784.53;;;25.31;65.06
13594;BME280;6449;47.666;9.160;2022-08-05T03:41:33;96781.78;;;25.44;65.25
13594;BME280;6449;47.666;9.160;2022-08-05T03:46:40;96771.00;;;25.51;64.09
13594;BME280;6449;47.666;9.160;2022-08-05T03:51:43;96763.78;;;25.51;64.88
13594;BME280;6449;47.666;9.160;2022-08-05T03:56:59;96769.53;;;25.55;65.66
13594;BME280;6449;47.666;9.160;2022-08-05T04:02:10;96761.72;;;25.53;65.72
13594;BME280;6449;47.666;9.160;2022-08-05T04:07:10;96751.25;;;25.39;66.54
13594;BME280;6449;47.666;9.160;2022-08-05T04:12:05;96750.09;;;25.21;67.24
13594;BME280;6449;47.666;9.160;2022-08-05T04:17:16;96755.06;;;25.04;66.51
13594;BME280;6449;47.666;9.160;2022-08-05T04:22:12;96749.47;;;25.13;66.83
13594;BME280;6449;47.666;9.160;2022-08-05T04:27:12;96751.31;;;25.25;65.39
13594;BME280;6449;47.666;9.160;2022-08-05T04:32:07;96733.13;;;25.27;64.99
13594;BME280;6449;47.666;9.160;2022-08-05T04:37:01;96736.81;;;25.33;65.44
13594;BME280;6449;47.666;9.160;2022-08-05T04:41:57;96742.97;;;25.40;65.79
13594;BME280;6449;47.666;9.160;2022-08-05T04:46:52;96749.78;;;25.43;65.16
13594;BME280;6449;47.666;9.160;2022-08-05T04:51:46;96763.06;;;25.31;65.95
13594;BME280;6449;47.666;9.160;2022-08-05T04:56:51;96763.72;;;25.20;68.15
13594;BME280;6449;47.666;9.160;2022-08-05T05:01:52;96765.41;;;24.81;70.45
13594;BME280;6449;47.666;9.160;2022-08-05T05:07:05;96777.53;;;25.03;70.16
13594;BME280;6449;47.666;9.160;2022-08-05T05:12:00;96786.59;;;25.36;69.06
13594;BME280;6449;47.666;9.160;2022-08-05T05:16:55;96794.03;;;25.72;67.44
13594;BME280;6449;47.666;9.160;2022-08-05T05:21:48;96779.91;;;25.45;68.02
13594;BME280;6449;47.666;9.160;2022-08-05T05:26:46;96777.34;;;25.12;70.92
13594;BME280;6449;47.666;9.160;2022-08-05T05:31:43;96777.78;;;25.15;71.61
13594;BME280;6449;47.666;9.160;2022-08-05T05:36:38;96792.59;;;25.31;71.48
13594;BME280;6449;47.666;9.160;2022-08-05T05:41:33;96802.94;;;25.07;70.84
13594;BME280;6449;47.666;9.160;2022-08-05T05:46:32;96801.50;;;24.92;74.85
13594;BME280;6449;47.666;9.160;2022-08-05T05:51:31;96818.22;;;25.20;72.79
13594;BME280;6449;47.666;9.160;2022-08-05T05:56:43;96826.47;;;24.99;77.43
13594;BME280;6449;47.666;9.160;2022-08-05T06:01:40;96836.81;;;24.89;77.94
13594;BME280;6449;47.666;9.160;2022-08-05T06:06:48;96842.16;;;25.08;77.37
13594;BME280;6449;47.666;9.160;2022-08-05T06:11:44;96854.31;;;25.24;72.61
13594;BME280;6449;47.666;9.160;2022-08-05T06:16:53;96878.47;;;25.04;74.09
13594;BME280;6449;47.666;9.160;2022-08-05T06:21:48;96911.72;;;25.10;74.02
13594;BME280;6449;47.666;9.160;2022-08-05T06:26:44;96915.97;;;25.51;70.42
13594;BME280;6449;47.666;9.160;2022-08-05T06:31:44;96925.25;;;25.61;70.35
13594;BME280;6449;47.666;9.160;2022-08-05T06:36:38;96924.81;;;25.84;67.63
13594;BME280;6449;47.666;9.160;2022-08-05T06:41:50;96937.44;;;25.84;67.88
13594;BME280;6449;47.666;9.160;2022-08-05T06:46:44;96934.31;;;25.87;67.51
13594;BME280;6449;47.666;9.160;2022-08-05T06:51:42;96936.59;;;25.77;67.78
13594;BME280;6449;47.666;9.160;2022-08-05T06:56:35;96948.19;;;25.64;69.36
13594;BME280;6449;47.666;9.160;2022-08-05T07:01:31;96947.75;;;25.67;69.67
13594;BME280;6449;47.666;9.160;2022-08-05T07:06:24;96944.84;;;25.82;70.67
13594;BME280;6449;47.666;9.160;2022-08-05T07:11:19;96959.44;;;26.12;69.53
13594;BME280;6449;47.666;9.160;2022-08-05T07:16:16;96953.47;;;26.55;64.89
13594;BME280;6449;47.666;9.160;2022-08-05T07:21:49;96953.06;;;26.83;62.78
13594;BME280;6449;47.666;9.160;2022-08-05T07:26:52;96969.94;;;26.97;63.05
13594;BME280;6449;47.666;9.160;2022-08-05T07:31:46;96961.03;;;27.28;62.29
13594;BME280;6449;47.666;9.160;2022-08-05T07:36:47;96963.91;;;27.77;58.74
13594;BME280;6449;47.666;9.160;2022-08-05T07:41:42;96972.34;;;27.80;56.14
13594;BME280;6449;47.666;9.160;2022-08-05T07:46:55;96960.09;;;28.39;54.14
13594;BME280;6449;47.666;9.160;2022-08-05T07:51:50;96969.06;;;28.82;52.00
13594;BME280;6449;47.666;9.160;2022-08-05T07:56:45;96969.78;;;28.59;50.59
13594;BME280;6449;47.666;9.160;2022-08-05T08:01:59;96976.66;;;28.85;51.95
13594;BME280;6449;47.666;9.160;2022-08-05T08:06:55;96976.28;;;28.81;50.41
13594;BME280;6449;47.666;9.160;2022-08-05T08:11:56;96982.78;;;28.92;49.37
13594;BME280;6449;47.666;9.160;2022-08-05T08:16:54;96985.03;;;28.35;50.75
13594;BME280;6449;47.666;9.160;2022-08-05T08:21:48;96981.97;;;28.91;50.58
13594;BME280;6449;47.666;9.160;2022-08-05T08:26:43;96981.25;;;29.26;47.41
13594;BME280;6449;47.666;9.160;2022-08-05T08:31:37;96990.34;;;29.02;48.07
13594;BME280;6449;47.666;9.160;2022-08-05T08:36:32;96988.53;;;29.26;47.73
13594;BME280;6449;47.666;9.160;2022-08-05T08:41:44;96990.06;;;29.33;46.85
13594;BME280;6449;47.666;9.160;2022-08-05T08:46:50;96988.19;;;29.34;46.67
13594;BME280;6449;47.666;9.160;2022-08-05T08:51:48;96993.53;;;29.75;46.85
13594;BME280;6449;47.666;9.160;2022-08-05T08:57:05;96997.28;;;29.86;47.08
13594;BME280;6449;47.666;9.160;2022-08-05T09:02:05;96993.75;;;29.74;45.31
13594;BME280;6449;47.666;9.160;2022-08-05T09:06:59;96996.09;;;30.17;45.66
13594;BME280;6449;47.666;9.160;2022-08-05T09:12:04;97006.44;;;30.61;45.50
13594;BME280;6449;47.666;9.160;2022-08-05T09:17:12;97000.00;;;30.50;43.74
13594;BME280;6449;47.666;9.160;2022-08-05T09:22:26;96990.75;;;30.74;44.67
13594;BME280;6449;47.666;9.160;2022-08-05T09:27:33;96986.09;;;30.87;43.49
13594;BME280;6449;47.666;9.160;2022-08-05T09:32:48;96983.16;;;31.05;43.46
13594;BME280;6449;47.666;9.160;2022-08-05T09:37:49;96975.94;;;30.94;42.67
13594;BME280;6449;47.666;9.160;2022-08-05T09:43:04;96974.88;;;30.95;43.38
13594;BME280;6449;47.666;9.160;2022-08-05T09:47:59;96976.19;;;30.92;44.08
13594;BME280;6449;47.666;9.160;2022-08-05T09:52:57;96973.66;;;31.02;43.88
13594;BME280;6449;47.666;9.160;2022-08-05T09:57:52;96984.75;;;31.01;44.94
13594;BME280;6449;47.666;9.160;2022-08-05T10:02:53;96974.03;;;30.94;44.25
13594;BME280;6449;47.666;9.160;2022-08-05T10:07:55;96979.31;;;30.84;44.88
13594;BME280;6449;47.666;9.160;2022-08-05T10:13:09;96967.97;;;30.87;44.85
13594;BME280;6449;47.666;9.160;2022-08-05T10:18:11;96963.56;;;30.98;44.39
13594;BME280;6449;47.666;9.160;2022-08-05T10:23:11;96963.97;;;30.90;44.54
13594;BME280;6449;47.666;9.160;2022-08-05T10:28:25;96955.59;;;30.91;44.03
13594;BME280;6449;47.666;9.160;2022-08-05T10:33:26;96960.94;;;31.03;43.59
13594;BME280;6449;47.666;9.160;2022-08-05T10:38:27;96948.38;;;31.14;42.34
13594;BME280;6449;47.666;9.160;2022-08-05T10:43:36;96948.66;;;31.29;42.88
13594;BME280;6449;47.666;9.160;2022-08-05T10:48:38;96952.56;;;31.04;43.37
13594;BME280;6449;47.666;9.160;2022-08-05T10:53:55;96941.22;;;31.24;43.83
13594;BME280;6449;47.666;9.160;2022-08-05T10:59:05;96931.59;;;31.28;43.15
13594;BME280;6449;47.666;9.160;2022-08-05T11:04:22;96927.09;;;31.56;42.92
13594;BME280;6449;47.666;9.160;2022-08-05T11:09:20;96926.28;;;31.55;42.99
13594;BME280;6449;47.666;9.160;2022-08-05T11:14:34;96917.00;;;31.51;43.08
13594;BME280;6449;47.666;9.160;2022-08-05T11:19:51;96924.97;;;31.58;42.93
13594;BME280;6449;47.666;9.160;2022-08-05T11:25:32;96919.38;;;31.65;42.69
13594;BME280;6449;47.666;9.160;2022-08-05T11:31:32;96899.47;;;31.76;41.98
13594;BME280;6449;47.666;9.160;2022-08-05T11:36:51;96901.03;;;31.72;42.38
13594;BME280;6449;47.666;9.160;2022-08-05T11:41:52;96899.94;;;31.90;42.23
13594;BME280;6449;47.666;9.160;2022-08-05T11:46:55;96887.97;;;31.86;42.65
13594;BME280;6449;47.666;9.160;2022-08-05T11:52:09;96884.00;;;31.76;41.37
13594;BME280;6449;47.666;9.160;2022-08-05T11:57:04;96879.59;;;31.70;40.36
13594;BME280;6449;47.666;9.160;2022-08-05T12:02:17;96889.03;;;31.68;41.67
13594;BME280;6449;47.666;9.160;2022-08-05T12:39:46;96858.56;;;31.39;41.64
13594;BME280;6449;47.666;9.160;2022-08-05T12:48:40;96846.16;;;31.43;42.17
13594;BME280;6449;47.666;9.160;2022-08-05T12:52:12;96846.78;;;31.50;42.71
13594;BME280;6449;47.666;9.160;2022-08-05T12:57:40;96843.34;;;31.54;43.00
13594;BME280;6449;47.666;9.160;2022-08-05T13:02:54;96838.22;;;31.58;42.35
13594;BME280;6449;47.666;9.160;2022-08-05T13:07:56;96828.25;;;31.42;42.74
13594;BME280;6449;47.666;9.160;2022-08-05T13:12:55;96811.50;;;31.45;41.44
13594;BME280;6449;47.666;9.160;2022-08-05T13:17:54;96808.72;;;31.40;41.46
13594;BME280;6449;47.666;9.160;2022-08-05T13:22:52;96812.81;;;31.42;41.48
13594;BME280;6449;47.666;9.160;2022-08-05T13:27:53;96798.50;;;31.47;41.29
13594;BME280;6449;47.666;9.160;2022-08-05T13:32:48;96790.44;;;31.52;41.72
13594;BME280;6449;47.666;9.160;2022-08-05T13:37:43;96762.31;;;31.58;40.04
13594;BME280;6449;47.666;9.160;2022-08-05T13:42:46;96761.22;;;31.54;38.77
13594;BME280;6449;47.666;9.160;2022-08-05T13:47:48;96751.94;;;31.50;38.50
13594;BME280;6449;47.666;9.160;2022-08-05T13:53:01;96729.13;;;31.46;37.14
13594;BME280;6449;47.666;9.160;2022-08-05T13:58:00;96730.22;;;31.72;37.42
13594;BME280;6449;47.666;9.160;2022-08-05T14:02:55;96738.16;;;31.78;38.93
13594;BME280;6449;47.666;9.160;2022-08-05T14:07:52;96742.28;;;31.59;38.97
13594;BME280;6449;47.666;9.160;2022-08-05T14:12:58;96740.47;;;31.65;37.69
13594;BME280;6449;47.666;9.160;2022-08-05T14:17:54;96740.06;;;31.56;37.51
13594;BME280;6449;47.666;9.160;2022-08-05T14:22:50;96724.44;;;31.63;38.10
13594;BME280;6449;47.666;9.160;2022-08-05T14:27:44;96725.28;;;31.69;37.37
13594;BME280;6449;47.666;9.160;2022-08-05T14:32:39;96731.44;;;31.59;40.58
13594;BME280;6449;47.666;9.160;2022-08-05T14:37:35;96721.97;;;31.62;39.46
13594;BME280;6449;47.666;9.160;2022-08-05T14:42:39;96711.06;;;31.56;37.68
13594;BME280;6449;47.666;9.160;2022-08-05T14:47:33;96715.88;;;31.49;37.79
13594;BME280;6449;47.666;9.160;2022-08-05T14:52:48;96723.75;;;31.51;39.94
13594;BME280;6449;47.666;9.160;2022-08-05T14:57:48;96706.09;;;31.70;39.44
13594;BME280;6449;47.666;9.160;2022-08-05T15:02:55;96710.31;;;31.61;38.80
13594;BME280;6449;47.666;9.160;2022-08-05T15:14:02;96713.13;;;31.71;39.43
13594;BME280;6449;47.666;9.160;2022-08-05T15:19:45;96710.41;;;31.93;38.57
13594;BME280;6449;47.666;9.160;2022-08-05T15:24:46;96713.94;;;31.94;37.85
13594;BME280;6449;47.666;9.160;2022-08-05T15:29:44;96701.53;;;32.03;38.03
13594;BME280;6449;47.666;9.160;2022-08-05T15:34:40;96710.94;;;31.95;39.59
13594;BME280;6449;47.666;9.160;2022-08-05T15:39:40;96696.06;;;31.98;38.02
13594;BME280;6449;47.666;9.160;2022-08-05T15:44:55;96716.84;;;31.87;39.58
13594;BME280;6449;47.666;9.160;2022-08-05T15:56:01;96715.91;;;31.76;40.10
13594;BME280;6449;47.666;9.160;2022-08-05T16:01:26;96715.59;;;31.73;40.67
13594;BME280;6449;47.666;9.160;2022-08-05T16:06:32;96703.38;;;31.70;38.75
13594;BME280;6449;47.666;9.160;2022-08-05T16:12:03;96710.31;;;31.61;38.68
13594;BME280;6449;47.666;9.160;2022-08-05T16:17:24;96702.19;;;31.61;38.02
13594;BME280;6449;47.666;9.160;2022-08-05T16:29:41;96695.25;;;31.70;37.78
13594;BME280;6449;47.666;9.160;2022-08-05T16:34:44;96695.25;;;31.70;38.98
13594;BME280;6449;47.666;9.160;2022-08-05T16:40:09;96694.22;;;31.76;40.87
13594;BME280;6449;47.666;9.160;2022-08-05T16:45:27;96683.59;;;31.70;39.21
13594;BME280;6449;47.666;9.160;2022-08-05T16:51:05;96666.19;;;31.66;37.75
13594;BME280;6449;47.666;9.160;2022-08-05T16:56:04;96655.59;;;31.64;37.74
13594;BME280;6449;47.666;9.160;2022-08-05T17:01:08;96645.63;;;31.70;37.31
13594;BME280;6449;47.666;9.160;2022-08-05T17:06:24;96663.97;;;31.36;38.83
13594;BME280;6449;47.666;9.160;2022-08-05T17:11:32;96673.38;;;31.28;41.06
13594;BME280;6449;47.666;9.160;2022-08-05T17:16:39;96681.72;;;31.04;43.19
13594;BME280;6449;47.666;9.160;2022-08-05T17:21:38;96696.72;;;30.90;43.23
13594;BME280;6449;47.666;9.160;2022-08-05T17:26:42;96710.44;;;30.50;41.76
13594;BME280;6449;47.666;9.160;2022-08-05T17:32:24;96709.75;;;30.09;42.41
13594;BME280;6449;47.666;9.160;2022-08-05T17:38:37;96710.41;;;29.54;42.12
13594;BME280;6449;47.666;9.160;2022-08-05T18:03:42;96850.81;;;28.60;45.58
13594;BME280;6449;47.666;9.160;2022-08-05T18:09:24;96951.53;;;28.06;55.80
13594;BME280;6449;47.666;9.160;2022-08-05T18:21:02;97071.09;;;25.55;74.39
13594;BME280;6449;47.666;9.160;2022-08-05T18:26:28;97144.44;;;23.26;83.31
13594;BME280;6449;47.666;9.160;2022-08-05T18:31:59;97118.63;;;22.97;83.15
13594;BME280;6449;47.666;9.160;2022-08-05T18:37:08;97150.66;;;22.46;98.44
13594;BME280;6449;47.666;9.160;2022-08-05T18:42:07;97130.56;;;22.65;96.32
13594;BME280;6449;47.666;9.160;2022-08-05T18:47:09;97111.97;;;22.13;96.40
13594;BME280;6449;47.666;9.160;2022-08-05T18:52:05;97105.91;;;22.34;100.00
13594;BME280;6449;47.666;9.160;2022-08-05T18:57:24;97127.50;;;22.09;100.00
13594;BME280;6449;47.666;9.160;2022-08-05T19:02:44;97160.94;;;22.05;100.00
13594;BME280;6449;47.666;9.160;2022-08-05T19:07:41;97167.16;;;21.97;100.00
13594;BME280;6449;47.666;9.160;2022-08-05T19:12:42;97195.00;;;22.03;100.00
13594;BME280;6449;47.666;9.160;2022-08-05T19:17:40;97201.44;;;22.09;100.00
13594;BME280;6449;47.666;9.160;2022-08-05T19:22:54;97212.84;;;22.03;100.00
13594;BME280;6449;47.666;9.160;2022-08-05T19:27:48;97229.66;;;21.65;100.00
13594;BME280;6449;47.666;9.160;2022-08-05T19:45:22;97266.97;;;22.19;100.00
13594;BME280;6449;47.666;9.160;2022-08-05T19:50:35;97280.72;;;22.31;100.00
13594;BME280;6449;47.666;9.160;2022-08-05T19:55:45;97318.94;;;22.09;100.00
13594;BME280;6449;47.666;9.160;2022-08-05T20:01:20;97350.34;;;21.53;100.00
13594;BME280;6449;47.666;9.160;2022-08-05T20:06:58;97331.16;;;22.03;100.00
13594;BME280;6449;47.666;9.160;2022-08-05T20:12:14;97325.81;;;22.03;100.00
13594;BME280;6449;47.666;9.160;2022-08-05T20:17:14;97344.94;;;21.92;100.00
13594;BME280;6449;47.666;9.160;2022-08-05T20:22:15;97344.94;;;21.92;100.00
13594;BME280;6449;47.666;9.160;2022-08-05T20:27:25;97338.44;;;21.94;100.00
13594;BME280;6449;47.666;9.160;2022-08-05T20:32:34;97357.28;;;21.93;100.00
13594;BME280;6449;47.666;9.160;2022-08-05T20:37:38;97352.75;;;21.93;100.00
13594;BME280;6449;47.666;9.160;2022-08-05T20:42:52;97367.00;;;21.86;100.00
13594;BME280;6449;47.666;9.160;2022-08-05T20:47:55;97374.00;;;21.87;100.00
13594;BME280;6449;47.666;9.160;2022-08-05T20:52:51;97372.44;;;21.69;100.00
13594;BME280;6449;47.666;9.160;2022-08-05T20:57:45;97390.59;;;21.74;100.00
13594;BME280;6449;47.666;9.160;2022-08-05T21:02:40;97392.31;;;21.59;100.00
13594;BME280;6449;47.666;9.160;2022-08-05T21:07:44;97379.09;;;21.74;100.00
13594;BME280;6449;47.666;9.160;2022-08-05T21:12:46;97365.69;;;21.82;100.00
13594;BME280;6449;47.666;9.160;2022-08-05T21:17:53;97339.81;;;21.82;100.00
13594;BME280;6449;47.666;9.160;2022-08-05T21:22:52;97340.41;;;21.69;100.00
13594;BME280;6449;47.666;9.160;2022-08-05T21:27:45;97365.66;;;21.51;100.00
13594;BME280;6449;47.666;9.160;2022-08-05T21:32:43;97393.59;;;21.15;100.00
13594;BME280;6449;47.666;9.160;2022-08-05T21:37:37;97379.69;;;21.53;100.00
13594;BME280;6449;47.666;9.160;2022-08-05T21:42:34;97364.97;;;21.88;100.00
13594;BME280;6449;47.666;9.160;2022-08-05T21:47:36;97360.41;;;21.74;100.00
13594;BME280;6449;47.666;9.160;2022-08-05T21:52:48;97369.88;;;21.76;100.00
13594;BME280;6449;47.666;9.160;2022-08-05T21:57:43;97379.16;;;21.57;100.00
13594;BME280;6449;47.666;9.160;2022-08-05T22:02:37;97392.13;;;21.60;100.00
13594;BME280;6449;47.666;9.160;2022-08-05T22:07:33;97405.00;;;21.57;100.00
13594;BME280;6449;47.666;9.160;2022-08-05T22:12:48;97414.00;;;21.56;100.00
13594;BME280;6449;47.666;9.160;2022-08-05T22:17:44;97412.22;;;21.48;100.00
13594;BME280;6449;47.666;9.160;2022-08-05T22:22:51;97409.38;;;21.50;100.00
13594;BME280;6449;47.666;9.160;2022-08-05T22:28:13;97404.22;;;21.48;100.00
13594;BME280;6449;47.666;9.160;2022-08-05T22:33:09;97411.59;;;21.30;100.00
13594;BME280;6449;47.666;9.160;2022-08-05T22:38:07;97414.19;;;21.54;100.00
13594;BME280;6449;47.666;9.160;2022-08-05T22:43:01;97413.47;;;21.68;100.00
13594;BME280;6449;47.666;9.160;2022-08-05T22:47:57;97416.66;;;21.64;100.00
13594;BME280;6449;47.666;9.160;2022-08-05T22:52:51;97428.91;;;21.34;100.00
13594;BME280;6449;47.666;9.160;2022-08-05T22:57:45;97431.53;;;21.50;100.00
13594;BME280;6449;47.666;9.160;2022-08-05T23:02:40;97409.03;;;21.53;100.00
13594;BME280;6449;47.666;9.160;2022-08-05T23:07:39;97415.34;;;21.52;100.00
13594;BME280;6449;47.666;9.160;2022-08-05T23:12:41;97429.75;;;21.18;100.00
13594;BME280;6449;47.666;9.160;2022-08-05T23:17:35;97447.75;;;21.24;100.00
13594;BME280;6449;47.666;9.160;2022-08-05T23:22:50;97453.91;;;21.25;100.00
13594;BME280;6449;47.666;9.160;2022-08-05T23:27:47;97450.06;;;21.35;100.00
13594;BME280;6449;47.666;9.160;2022-08-05T23:32:51;97447.06;;;21.47;100.00
13594;BME280;6449;47.666;9.160;2022-08-05T23:37:45;97450.91;;;21.44;100.00
13594;BME280;6449;47.666;9.160;2022-08-05T23:42:40;97441.75;;;21.38;100.00
13594;BME280;6449;47.666;9.160;2022-08-05T23:47:44;97423.06;;;21.38;100.00
13594;BME280;6449;47.666;9.160;2022-08-05T23:52:41;97419.41;;;21.39;100.00
13594;BME280;6449;47.666;9.160;2022-08-05T23:57:43;97438.97;;;20.83;100.00
